sensor_id;sensor_type;location;lat;lon;timestamp;pressure;altitude;pressure_sealevel;temperature;humidity
83185;BME280;73080;48.768;11.528;2024-02-26T00:01:01;95390.97;;;2.86;81.57
83185;BME280;73080;48.768;11.528;2024-02-26T00:03:27;95387.44;;;2.92;80.64
83185;BME280;73080;48.768;11.528;2024-02-26T00:05:52;95394.34;;;2.86;80.80
83185;BME280;73080;48.768;11.528;2024-02-26T00:08:17;95384.66;;;2.82;81.41
83185;BME280;73080;48.768;11.528;2024-02-26T00:10:43;95385.91;;;2.79;81.05
83185;BME280;73080;48.768;11.528;2024-02-26T00:13:08;95388.88;;;2.71;81.94
83185;BME280;73080;48.768;11.528;2024-02-26T00:15:33;95388.34;;;2.69;81.46
83185;BME280;73080;48.768;11.528;2024-02-26T00:17:58;95387.88;;;2.60;82.40
83185;BME280;73080;48.768;11.528;2024-02-26T00:20:24;95383.19;;;2.57;82.69
83185;BME280;73080;48.768;11.528;2024-02-26T00:22:49;95385.28;;;2.60;82.39
83185;BME280;73080;48.768;11.528;2024-02-26T00:25:14;95376.88;;;2.53;82.38
83185;BME280;73080;48.768;11.528;2024-02-26T00:27:40;95372.59;;;2.59;82.39
83185;BME280;73080;48.768;11.528;2024-02-26T00:30:06;95377.00;;;2.46;82.92
83185;BME280;73080;48.768;11.528;2024-02-26T00:32:31;95378.25;;;2.56;82.47
83185;BME280;73080;48.768;11.528;2024-02-26T00:34:57;95378.47;;;2.54;82.45
83185;BME280;73080;48.768;11.528;2024-02-26T00:37:22;95375.22;;;2.47;83.24
83185;BME280;73080;48.768;11.528;2024-02-26T00:39:47;95373.31;;;2.42;83.07
83185;BME280;73080;48.768;11.528;2024-02-26T00:42:13;95378.75;;;2.41;83.58
83185;BME280;73080;48.768;11.528;2024-02-26T00:44:38;95373.44;;;2.36;83.52
83185;BME280;73080;48.768;11.528;2024-02-26T00:47:04;95372.94;;;2.51;82.93
83185;BME280;73080;48.768;11.528;2024-02-26T00:49:29;95374.22;;;2.48;83.42
83185;BME280;73080;48.768;11.528;2024-02-26T00:51:54;95372.06;;;2.45;83.51
83185;BME280;73080;48.768;11.528;2024-02-26T00:54:20;95378.88;;;2.34;83.96
83185;BME280;73080;48.768;11.528;2024-02-26T00:56:45;95380.63;;;2.45;83.08
83185;BME280;73080;48.768;11.528;2024-02-26T00:59:11;95380.75;;;2.39;83.62
83185;BME280;73080;48.768;11.528;2024-02-26T01:01:36;95386.94;;;2.50;83.51
83185;BME280;73080;48.768;11.528;2024-02-26T01:04:04;95380.75;;;2.39;83.54
83185;BME280;73080;48.768;11.528;2024-02-26T01:06:33;95373.69;;;2.34;83.39
83185;BME280;73080;48.768;11.528;2024-02-26T01:08:58;95372.91;;;2.34;84.27
83185;BME280;73080;48.768;11.528;2024-02-26T01:11:24;95378.09;;;2.34;83.80
83185;BME280;73080;48.768;11.528;2024-02-26T01:13:49;95381.69;;;2.33;83.51
83185;BME280;73080;48.768;11.528;2024-02-26T01:16:15;95370.56;;;2.20;84.48
83185;BME280;73080;48.768;11.528;2024-02-26T01:18:40;95362.56;;;2.22;84.18
83185;BME280;73080;48.768;11.528;2024-02-26T01:21:06;95364.47;;;2.27;84.37
83185;BME280;73080;48.768;11.528;2024-02-26T01:23:31;95355.59;;;2.23;84.46
83185;BME280;73080;48.768;11.528;2024-02-26T01:25:56;95358.19;;;2.11;84.80
83185;BME280;73080;48.768;11.528;2024-02-26T01:28:22;95367.22;;;2.08;85.03
83185;BME280;73080;48.768;11.528;2024-02-26T01:30:47;95362.09;;;2.25;85.09
83185;BME280;73080;48.768;11.528;2024-02-26T01:33:12;95360.88;;;2.28;84.74
83185;BME280;73080;48.768;11.528;2024-02-26T01:35:38;95365.28;;;2.15;85.01
83185;BME280;73080;48.768;11.528;2024-02-26T01:38:03;95367.97;;;2.20;85.45
83185;BME280;73080;48.768;11.528;2024-02-26T01:40:29;95369.69;;;2.15;85.21
83185;BME280;73080;48.768;11.528;2024-02-26T01:42:58;95370.69;;;2.26;85.42
83185;BME280;73080;48.768;11.528;2024-02-26T01:45:27;95376.19;;;2.17;85.45
83185;BME280;73080;48.768;11.528;2024-02-26T01:47:52;95369.69;;;2.15;85.86
83185;BME280;73080;48.768;11.528;2024-02-26T01:50:27;95373.06;;;2.15;85.67
83185;BME280;73080;48.768;11.528;2024-02-26T01:52:56;95364.03;;;2.18;85.39
83185;BME280;73080;48.768;11.528;2024-02-26T01:55:23;95362.25;;;2.18;85.50
83185;BME280;73080;48.768;11.528;2024-02-26T01:57:49;95360.63;;;2.29;85.28
83185;BME280;73080;48.768;11.528;2024-02-26T02:00:16;95360.22;;;2.09;86.23
83185;BME280;73080;48.768;11.528;2024-02-26T02:02:43;95359.44;;;2.20;86.03
83185;BME280;73080;48.768;11.528;2024-02-26T02:05:09;95352.69;;;2.07;85.94
83185;BME280;73080;48.768;11.528;2024-02-26T02:07:36;95354.69;;;2.17;86.03
83185;BME280;73080;48.768;11.528;2024-02-26T02:10:01;95354.63;;;2.12;86.66
83185;BME280;73080;48.768;11.528;2024-02-26T02:12:27;95360.59;;;2.01;87.01
83185;BME280;73080;48.768;11.528;2024-02-26T02:14:52;95359.44;;;2.08;86.52
83185;BME280;73080;48.768;11.528;2024-02-26T02:17:21;95357.63;;;2.09;86.49
83185;BME280;73080;48.768;11.528;2024-02-26T02:19:46;95360.03;;;1.99;86.41
83185;BME280;73080;48.768;11.528;2024-02-26T02:22:11;95359.13;;;2.05;86.08
83185;BME280;73080;48.768;11.528;2024-02-26T02:24:37;95354.19;;;1.91;86.58
83185;BME280;73080;48.768;11.528;2024-02-26T02:27:02;95356.88;;;1.97;86.72
83185;BME280;73080;48.768;11.528;2024-02-26T02:29:28;95354.88;;;1.87;86.81
83185;BME280;73080;48.768;11.528;2024-02-26T02:31:54;95350.16;;;1.84;87.32
83185;BME280;73080;48.768;11.528;2024-02-26T02:34:21;95355.75;;;1.92;86.55
83185;BME280;73080;48.768;11.528;2024-02-26T02:36:53;95341.81;;;1.82;87.01
83185;BME280;73080;48.768;11.528;2024-02-26T02:39:19;95342.28;;;1.79;87.49
83185;BME280;73080;48.768;11.528;2024-02-26T02:41:44;95337.66;;;1.92;86.58
83185;BME280;73080;48.768;11.528;2024-02-26T02:44:10;95323.34;;;1.90;86.21
83185;BME280;73080;48.768;11.528;2024-02-26T02:46:35;95325.19;;;1.66;88.29
83185;BME280;73080;48.768;11.528;2024-02-26T02:49:01;95326.53;;;1.69;87.49
83185;BME280;73080;48.768;11.528;2024-02-26T02:51:26;95325.75;;;1.68;88.11
83185;BME280;73080;48.768;11.528;2024-02-26T02:53:52;95321.47;;;1.74;87.21
83185;BME280;73080;48.768;11.528;2024-02-26T02:56:17;95312.38;;;1.71;88.03
83185;BME280;73080;48.768;11.528;2024-02-26T02:58:42;95324.16;;;1.79;87.77
83185;BME280;73080;48.768;11.528;2024-02-26T03:01:07;95333.03;;;1.83;87.90
83185;BME280;73080;48.768;11.528;2024-02-26T03:03:33;95327.19;;;1.87;88.09
83185;BME280;73080;48.768;11.528;2024-02-26T03:05:58;95328.22;;;1.86;87.94
83185;BME280;73080;48.768;11.528;2024-02-26T03:08:24;95337.22;;;1.84;87.75
83185;BME280;73080;48.768;11.528;2024-02-26T03:10:49;95325.16;;;1.89;87.75
83185;BME280;73080;48.768;11.528;2024-02-26T03:13:15;95332.91;;;1.89;87.13
83185;BME280;73080;48.768;11.528;2024-02-26T03:15:40;95329.53;;;1.89;87.52
83185;BME280;73080;48.768;11.528;2024-02-26T03:18:08;95328.19;;;1.98;87.17
83185;BME280;73080;48.768;11.528;2024-02-26T03:20:34;95326.16;;;2.00;86.91
83185;BME280;73080;48.768;11.528;2024-02-26T03:22:59;95333.81;;;1.95;87.66
83185;BME280;73080;48.768;11.528;2024-02-26T03:25:24;95332.78;;;1.96;87.80
83185;BME280;73080;48.768;11.528;2024-02-26T03:27:50;95325.59;;;1.98;87.84
83185;BME280;73080;48.768;11.528;2024-02-26T03:30:15;95333.25;;;2.05;87.59
83185;BME280;73080;48.768;11.528;2024-02-26T03:32:40;95322.56;;;2.01;87.56
83185;BME280;73080;48.768;11.528;2024-02-26T03:35:09;95326.84;;;1.96;87.47
83185;BME280;73080;48.768;11.528;2024-02-26T03:37:34;95328.41;;;1.97;87.83
83185;BME280;73080;48.768;11.528;2024-02-26T03:40:00;95330.69;;;1.81;88.54
83185;BME280;73080;48.768;11.528;2024-02-26T03:42:31;95320.63;;;1.97;87.99
83185;BME280;73080;48.768;11.528;2024-02-26T03:44:57;95318.88;;;1.85;88.90
83185;BME280;73080;48.768;11.528;2024-02-26T03:47:22;95320.09;;;1.95;88.22
83185;BME280;73080;48.768;11.528;2024-02-26T03:49:47;95323.81;;;1.99;87.95
83185;BME280;73080;48.768;11.528;2024-02-26T03:52:13;95326.75;;;1.90;88.31
83185;BME280;73080;48.768;11.528;2024-02-26T03:54:38;95331.09;;;2.02;88.04
83185;BME280;73080;48.768;11.528;2024-02-26T03:57:03;95343.81;;;2.03;87.88
83185;BME280;73080;48.768;11.528;2024-02-26T03:59:32;95330.50;;;2.11;87.39
83185;BME280;73080;48.768;11.528;2024-02-26T04:01:57;95327.13;;;2.11;87.79
83185;BME280;73080;48.768;11.528;2024-02-26T04:04:22;95316.09;;;2.15;87.59
83185;BME280;73080;48.768;11.528;2024-02-26T04:06:48;95322.25;;;2.26;87.27
83185;BME280;73080;48.768;11.528;2024-02-26T04:09:14;95322.13;;;2.33;87.41
83185;BME280;73080;48.768;11.528;2024-02-26T04:11:39;95315.50;;;2.25;87.59
83185;BME280;73080;48.768;11.528;2024-02-26T04:14:05;95318.91;;;2.14;87.91
83185;BME280;73080;48.768;11.528;2024-02-26T04:16:30;95314.28;;;2.16;87.68
83185;BME280;73080;48.768;11.528;2024-02-26T04:18:55;95315.19;;;2.10;87.49
83185;BME280;73080;48.768;11.528;2024-02-26T04:21:21;95320.34;;;2.22;87.30
83185;BME280;73080;48.768;11.528;2024-02-26T04:23:46;95328.66;;;2.24;87.27
83185;BME280;73080;48.768;11.528;2024-02-26T04:26:12;95331.50;;;2.51;86.86
83185;BME280;73080;48.768;11.528;2024-02-26T04:28:37;95336.31;;;2.30;87.32
83185;BME280;73080;48.768;11.528;2024-02-26T04:31:02;95346.09;;;2.40;87.54
83185;BME280;73080;48.768;11.528;2024-02-26T04:33:28;95357.75;;;2.54;86.34
83185;BME280;73080;48.768;11.528;2024-02-26T04:35:53;95357.03;;;2.59;86.21
83185;BME280;73080;48.768;11.528;2024-02-26T04:38:18;95354.44;;;2.59;86.35
83185;BME280;73080;48.768;11.528;2024-02-26T04:40:44;95355.19;;;2.42;87.04
83185;BME280;73080;48.768;11.528;2024-02-26T04:43:09;95363.19;;;2.41;87.16
83185;BME280;73080;48.768;11.528;2024-02-26T04:45:34;95355.88;;;2.38;87.15
83185;BME280;73080;48.768;11.528;2024-02-26T04:48:03;95353.47;;;2.19;87.92
83185;BME280;73080;48.768;11.528;2024-02-26T04:50:28;95353.09;;;2.28;87.55
83185;BME280;73080;48.768;11.528;2024-02-26T04:52:53;95356.44;;;2.40;87.22
83185;BME280;73080;48.768;11.528;2024-02-26T04:55:18;95358.88;;;2.46;86.89
83185;BME280;73080;48.768;11.528;2024-02-26T04:57:44;95356.88;;;2.48;86.69
83185;BME280;73080;48.768;11.528;2024-02-26T05:00:10;95361.75;;;2.33;87.34
83185;BME280;73080;48.768;11.528;2024-02-26T05:02:35;95357.78;;;2.42;87.03
83185;BME280;73080;48.768;11.528;2024-02-26T05:05:01;95356.88;;;2.48;87.13
83185;BME280;73080;48.768;11.528;2024-02-26T05:07:29;95358.84;;;2.30;87.30
83185;BME280;73080;48.768;11.528;2024-02-26T05:09:54;95360.88;;;2.28;87.75
83185;BME280;73080;48.768;11.528;2024-02-26T05:12:19;95360.09;;;2.27;87.67
83185;BME280;73080;48.768;11.528;2024-02-26T05:14:44;95355.78;;;2.33;87.23
83185;BME280;73080;48.768;11.528;2024-02-26T05:17:13;95356.75;;;2.43;87.46
83185;BME280;73080;48.768;11.528;2024-02-26T05:19:38;95350.16;;;2.36;87.50
83185;BME280;73080;48.768;11.528;2024-02-26T05:22:03;95348.34;;;2.36;87.43
83185;BME280;73080;48.768;11.528;2024-02-26T05:24:28;95349.63;;;2.51;87.10
83185;BME280;73080;48.768;11.528;2024-02-26T05:26:54;95353.16;;;2.44;86.75
83185;BME280;73080;48.768;11.528;2024-02-26T05:29:19;95360.78;;;2.51;86.09
83185;BME280;73080;48.768;11.528;2024-02-26T05:31:44;95356.50;;;2.57;86.45
83185;BME280;73080;48.768;11.528;2024-02-26T05:34:10;95356.81;;;2.60;85.94
83185;BME280;73080;48.768;11.528;2024-02-26T05:36:35;95354.28;;;2.48;86.51
83185;BME280;73080;48.768;11.528;2024-02-26T05:39:01;95348.50;;;2.46;85.94
83185;BME280;73080;48.768;11.528;2024-02-26T05:41:26;95344.31;;;2.57;86.42
83185;BME280;73080;48.768;11.528;2024-02-26T05:43:58;95347.97;;;2.44;86.25
83185;BME280;73080;48.768;11.528;2024-02-26T05:46:23;95352.19;;;2.62;86.22
83185;BME280;73080;48.768;11.528;2024-02-26T05:48:52;95355.88;;;2.38;86.62
83185;BME280;73080;48.768;11.528;2024-02-26T05:51:17;95357.66;;;2.49;86.76
83185;BME280;73080;48.768;11.528;2024-02-26T05:53:43;95350.13;;;2.47;86.40
83185;BME280;73080;48.768;11.528;2024-02-26T05:56:08;95357.38;;;2.34;86.81
83185;BME280;73080;48.768;11.528;2024-02-26T05:58:34;95366.00;;;2.39;86.38
83185;BME280;73080;48.768;11.528;2024-02-26T06:00:59;95373.16;;;2.61;85.78
83185;BME280;73080;48.768;11.528;2024-02-26T06:03:24;95387.38;;;2.46;86.29
83185;BME280;73080;48.768;11.528;2024-02-26T06:05:50;95388.06;;;2.42;86.29
83185;BME280;73080;48.768;11.528;2024-02-26T06:08:15;95392.16;;;2.66;85.66
83185;BME280;73080;48.768;11.528;2024-02-26T06:10:40;95392.56;;;2.46;86.18
83185;BME280;73080;48.768;11.528;2024-02-26T06:13:06;95382.91;;;2.70;85.34
83185;BME280;73080;48.768;11.528;2024-02-26T06:15:31;95397.25;;;2.61;85.46
83185;BME280;73080;48.768;11.528;2024-02-26T06:17:56;95402.88;;;2.58;85.29
83185;BME280;73080;48.768;11.528;2024-02-26T06:20:21;95406.25;;;2.59;85.05
83185;BME280;73080;48.768;11.528;2024-02-26T06:22:47;95404.50;;;2.47;85.89
83185;BME280;73080;48.768;11.528;2024-02-26T06:25:12;95398.03;;;2.62;85.55
83185;BME280;73080;48.768;11.528;2024-02-26T06:27:37;95402.31;;;2.68;85.25
83185;BME280;73080;48.768;11.528;2024-02-26T06:30:03;95416.06;;;2.57;85.50
83185;BME280;73080;48.768;11.528;2024-02-26T06:32:28;95418.63;;;2.68;85.06
83185;BME280;73080;48.768;11.528;2024-02-26T06:34:56;95423.72;;;2.63;85.08
83185;BME280;73080;48.768;11.528;2024-02-26T06:37:22;95430.72;;;2.63;84.55
83185;BME280;73080;48.768;11.528;2024-02-26T06:39:47;95428.34;;;2.61;85.01
83185;BME280;73080;48.768;11.528;2024-02-26T06:42:13;95428.03;;;2.86;83.84
83185;BME280;73080;48.768;11.528;2024-02-26T06:44:38;95430.22;;;2.78;84.06
83185;BME280;73080;48.768;11.528;2024-02-26T06:47:03;95431.66;;;2.73;84.20
83185;BME280;73080;48.768;11.528;2024-02-26T06:49:29;95433.25;;;2.74;84.36
83185;BME280;73080;48.768;11.528;2024-02-26T06:51:54;95431.34;;;2.70;84.59
83185;BME280;73080;48.768;11.528;2024-02-26T06:54:19;95440.47;;;2.72;84.48
83185;BME280;73080;48.768;11.528;2024-02-26T06:56:45;95449.16;;;2.95;83.77
83185;BME280;73080;48.768;11.528;2024-02-26T06:59:10;95461.44;;;2.99;83.49
83185;BME280;73080;48.768;11.528;2024-02-26T07:01:35;95460.16;;;3.14;83.10
83185;BME280;73080;48.768;11.528;2024-02-26T07:04:01;95458.69;;;3.18;82.70
83185;BME280;73080;48.768;11.528;2024-02-26T07:06:29;95451.09;;;2.99;83.82
83185;BME280;73080;48.768;11.528;2024-02-26T07:08:54;95451.50;;;2.80;85.03
83185;BME280;73080;48.768;11.528;2024-02-26T07:11:22;95459.22;;;2.91;85.20
83185;BME280;73080;48.768;11.528;2024-02-26T07:13:47;95462.13;;;2.95;84.96
83185;BME280;73080;48.768;11.528;2024-02-26T07:16:13;95456.81;;;3.01;85.26
83185;BME280;73080;48.768;11.528;2024-02-26T07:18:39;95453.56;;;2.94;85.04
83185;BME280;73080;48.768;11.528;2024-02-26T07:21:04;95451.38;;;3.03;84.99
83185;BME280;73080;48.768;11.528;2024-02-26T07:23:30;95458.75;;;2.94;84.46
83185;BME280;73080;48.768;11.528;2024-02-26T07:25:55;95467.16;;;3.30;83.65
83185;BME280;73080;48.768;11.528;2024-02-26T07:28:20;95466.72;;;3.33;84.19
83185;BME280;73080;48.768;11.528;2024-02-26T07:30:46;95462.09;;;3.52;82.96
83185;BME280;73080;48.768;11.528;2024-02-26T07:33:11;95463.25;;;3.44;83.83
83185;BME280;73080;48.768;11.528;2024-02-26T07:35:36;95462.84;;;3.81;83.64
83185;BME280;73080;48.768;11.528;2024-02-26T07:38:02;95462.13;;;3.69;82.30
83185;BME280;73080;48.768;11.528;2024-02-26T07:40:27;95479.50;;;3.85;82.52
83185;BME280;73080;48.768;11.528;2024-02-26T07:42:52;95478.47;;;3.86;82.39
83185;BME280;73080;48.768;11.528;2024-02-26T07:45:18;95476.28;;;3.61;82.86
83185;BME280;73080;48.768;11.528;2024-02-26T07:47:43;95481.47;;;3.61;82.00
83185;BME280;73080;48.768;11.528;2024-02-26T07:50:08;95495.84;;;3.85;81.15
83185;BME280;73080;48.768;11.528;2024-02-26T07:52:36;95489.72;;;3.92;81.01
83185;BME280;73080;48.768;11.528;2024-02-26T07:55:02;95485.94;;;4.16;81.08
83185;BME280;73080;48.768;11.528;2024-02-26T07:57:27;95494.22;;;3.96;80.51
83185;BME280;73080;48.768;11.528;2024-02-26T07:59:52;95506.78;;;3.88;80.39
83185;BME280;73080;48.768;11.528;2024-02-26T08:02:20;95506.72;;;3.99;80.62
83185;BME280;73080;48.768;11.528;2024-02-26T08:04:46;95496.09;;;4.01;80.62
83185;BME280;73080;48.768;11.528;2024-02-26T08:07:11;95486.50;;;3.68;80.49
83185;BME280;73080;48.768;11.528;2024-02-26T08:09:36;95488.81;;;4.36;81.04
83185;BME280;73080;48.768;11.528;2024-02-26T08:12:01;95484.09;;;4.33;79.06
83185;BME280;73080;48.768;11.528;2024-02-26T08:14:27;95482.78;;;4.14;79.46
83185;BME280;73080;48.768;11.528;2024-02-26T08:16:52;95474.28;;;4.19;80.66
83185;BME280;73080;48.768;11.528;2024-02-26T08:19:17;95473.22;;;4.36;80.29
83185;BME280;73080;48.768;11.528;2024-02-26T08:21:43;95478.34;;;4.31;80.18
83185;BME280;73080;48.768;11.528;2024-02-26T08:24:08;95484.97;;;4.22;79.88
83185;BME280;73080;48.768;11.528;2024-02-26T08:26:33;95484.84;;;4.51;80.26
83185;BME280;73080;48.768;11.528;2024-02-26T08:28:58;95479.38;;;4.30;78.43
83185;BME280;73080;48.768;11.528;2024-02-26T08:31:24;95471.97;;;4.22;79.53
83185;BME280;73080;48.768;11.528;2024-02-26T08:33:49;95458.94;;;4.00;79.11
83185;BME280;73080;48.768;11.528;2024-02-26T08:36:14;95456.84;;;3.97;80.99
83185;BME280;73080;48.768;11.528;2024-02-26T08:38:40;95456.50;;;3.94;80.60
83185;BME280;73080;48.768;11.528;2024-02-26T08:41:05;95456.97;;;4.07;80.81
83185;BME280;73080;48.768;11.528;2024-02-26T08:43:30;95463.66;;;4.20;79.65
83185;BME280;73080;48.768;11.528;2024-02-26T08:45:56;95459.44;;;3.97;80.94
83185;BME280;73080;48.768;11.528;2024-02-26T08:48:22;95455.03;;;3.98;79.93
83185;BME280;73080;48.768;11.528;2024-02-26T08:50:47;95453.50;;;4.19;79.80
83185;BME280;73080;48.768;11.528;2024-02-26T08:53:16;95448.16;;;4.08;79.87
83185;BME280;73080;48.768;11.528;2024-02-26T08:55:44;95452.72;;;4.18;79.85
83185;BME280;73080;48.768;11.528;2024-02-26T08:58:10;95458.03;;;4.67;78.72
83185;BME280;73080;48.768;11.528;2024-02-26T09:00:35;95451.03;;;4.51;78.35
83185;BME280;73080;48.768;11.528;2024-02-26T09:03:00;95459.41;;;4.53;78.28
83185;BME280;73080;48.768;11.528;2024-02-26T09:05:25;95452.88;;;4.50;77.71
83185;BME280;73080;48.768;11.528;2024-02-26T09:07:51;95450.16;;;4.62;78.40
83185;BME280;73080;48.768;11.528;2024-02-26T09:10:16;95448.28;;;4.57;78.50
83185;BME280;73080;48.768;11.528;2024-02-26T09:12:41;95441.81;;;4.60;80.10
83185;BME280;73080;48.768;11.528;2024-02-26T09:15:07;95454.22;;;4.75;79.41
83185;BME280;73080;48.768;11.528;2024-02-26T09:17:33;95458.19;;;4.82;77.33
83185;BME280;73080;48.768;11.528;2024-02-26T09:19:58;95477.53;;;4.91;76.41
83185;BME280;73080;48.768;11.528;2024-02-26T09:22:23;95483.84;;;4.74;76.78
83185;BME280;73080;48.768;11.528;2024-02-26T09:24:49;95484.44;;;4.81;77.01
83185;BME280;73080;48.768;11.528;2024-02-26T09:27:14;95500.66;;;4.88;76.52
83185;BME280;73080;48.768;11.528;2024-02-26T09:29:39;95503.06;;;5.16;74.85
83185;BME280;73080;48.768;11.528;2024-02-26T09:32:04;95516.97;;;5.54;73.42
83185;BME280;73080;48.768;11.528;2024-02-26T09:34:32;95520.16;;;5.61;72.70
83185;BME280;73080;48.768;11.528;2024-02-26T09:36:57;95537.72;;;6.03;71.28
83185;BME280;73080;48.768;11.528;2024-02-26T09:39:22;95549.09;;;6.24;72.03
83185;BME280;73080;48.768;11.528;2024-02-26T09:41:48;95563.13;;;6.18;70.93
83185;BME280;73080;48.768;11.528;2024-02-26T09:44:16;95549.16;;;6.34;69.87
83185;BME280;73080;48.768;11.528;2024-02-26T09:46:44;95559.81;;;6.65;69.40
83185;BME280;73080;48.768;11.528;2024-02-26T09:49:10;95559.94;;;6.48;69.40
83185;BME280;73080;48.768;11.528;2024-02-26T09:51:36;95550.16;;;6.65;69.21
83185;BME280;73080;48.768;11.528;2024-02-26T09:54:02;95552.13;;;6.43;69.37
83185;BME280;73080;48.768;11.528;2024-02-26T09:56:27;95550.19;;;6.28;70.92
83185;BME280;73080;48.768;11.528;2024-02-26T09:58:55;95536.69;;;6.04;73.11
83185;BME280;73080;48.768;11.528;2024-02-26T10:01:22;95534.28;;;5.97;73.41
83185;BME280;73080;48.768;11.528;2024-02-26T10:03:54;95529.06;;;5.92;74.84
83185;BME280;73080;48.768;11.528;2024-02-26T10:06:20;95527.78;;;5.95;75.38
83185;BME280;73080;48.768;11.528;2024-02-26T10:08:47;95521.69;;;5.89;74.48
83185;BME280;73080;48.768;11.528;2024-02-26T10:11:14;95511.22;;;5.84;73.78
83185;BME280;73080;48.768;11.528;2024-02-26T10:13:39;95515.84;;;5.77;74.37
83185;BME280;73080;48.768;11.528;2024-02-26T10:16:05;95506.31;;;5.88;74.71
83185;BME280;73080;48.768;11.528;2024-02-26T10:18:50;95505.84;;;5.91;74.64
83185;BME280;73080;48.768;11.528;2024-02-26T10:21:16;95500.84;;;6.16;76.25
83185;BME280;73080;48.768;11.528;2024-02-26T10:23:41;95517.56;;;6.20;75.61
83185;BME280;73080;48.768;11.528;2024-02-26T10:26:08;95515.38;;;6.12;75.09
83185;BME280;73080;48.768;11.528;2024-02-26T10:28:35;95512.56;;;6.19;74.98
83185;BME280;73080;48.768;11.528;2024-02-26T10:31:01;95513.56;;;6.50;74.50
83185;BME280;73080;48.768;11.528;2024-02-26T10:33:26;95525.44;;;6.30;74.28
83185;BME280;73080;48.768;11.528;2024-02-26T10:35:53;95531.59;;;6.19;74.08
83185;BME280;73080;48.768;11.528;2024-02-26T10:38:19;95521.41;;;6.55;72.11
83185;BME280;73080;48.768;11.528;2024-02-26T10:40:44;95513.81;;;6.48;72.45
83185;BME280;73080;48.768;11.528;2024-02-26T10:43:09;95506.97;;;6.37;73.20
83185;BME280;73080;48.768;11.528;2024-02-26T10:45:34;95501.94;;;6.25;72.53
83185;BME280;73080;48.768;11.528;2024-02-26T10:48:00;95493.41;;;6.35;73.45
83185;BME280;73080;48.768;11.528;2024-02-26T10:50:25;95493.28;;;6.62;73.32
83185;BME280;73080;48.768;11.528;2024-02-26T10:52:51;95497.19;;;6.59;73.33
83185;BME280;73080;48.768;11.528;2024-02-26T10:55:21;95491.91;;;6.44;72.31
83185;BME280;73080;48.768;11.528;2024-02-26T10:57:47;95489.09;;;6.61;71.69
83185;BME280;73080;48.768;11.528;2024-02-26T11:00:17;95495.97;;;6.77;71.59
83185;BME280;73080;48.768;11.528;2024-02-26T11:02:44;95493.38;;;6.82;70.91
83185;BME280;73080;48.768;11.528;2024-02-26T11:05:11;95500.34;;;6.67;71.70
83185;BME280;73080;48.768;11.528;2024-02-26T11:07:41;95509.34;;;6.96;70.57
83185;BME280;73080;48.768;11.528;2024-02-26T11:10:07;95507.13;;;7.30;71.07
83185;BME280;73080;48.768;11.528;2024-02-26T11:12:35;95503.72;;;7.25;72.02
83185;BME280;73080;48.768;11.528;2024-02-26T11:15:02;95503.22;;;7.28;70.16
83185;BME280;73080;48.768;11.528;2024-02-26T11:17:28;95504.56;;;7.40;68.81
83185;BME280;73080;48.768;11.528;2024-02-26T11:19:55;95506.91;;;7.42;69.49
83185;BME280;73080;48.768;11.528;2024-02-26T11:22:21;95513.75;;;7.79;70.78
83185;BME280;73080;48.768;11.528;2024-02-26T11:24:46;95516.34;;;8.09;68.46
83185;BME280;73080;48.768;11.528;2024-02-26T11:27:12;95516.34;;;8.30;68.85
83185;BME280;73080;48.768;11.528;2024-02-26T11:29:41;95514.53;;;8.45;69.32
83185;BME280;73080;48.768;11.528;2024-02-26T11:32:09;95516.34;;;8.35;68.68
83185;BME280;73080;48.768;11.528;2024-02-26T11:34:34;95517.91;;;8.31;66.44
83185;BME280;73080;48.768;11.528;2024-02-26T11:37:10;95518.72;;;8.26;66.34
83185;BME280;73080;48.768;11.528;2024-02-26T11:39:35;95521.06;;;8.43;64.99
83185;BME280;73080;48.768;11.528;2024-02-26T11:42:07;95533.09;;;8.44;66.50
83185;BME280;73080;48.768;11.528;2024-02-26T11:44:36;95527.34;;;8.37;68.19
83185;BME280;73080;48.768;11.528;2024-02-26T11:49:59;95529.13;;;8.72;67.74
83185;BME280;73080;48.768;11.528;2024-02-26T11:52:24;95524.94;;;8.71;65.63
83185;BME280;73080;48.768;11.528;2024-02-26T11:54:53;95524.91;;;8.86;65.31
83185;BME280;73080;48.768;11.528;2024-02-26T11:59:51;95529.31;;;9.01;65.40
83185;BME280;73080;48.768;11.528;2024-02-26T12:07:41;95522.13;;;9.27;65.08
83185;BME280;73080;48.768;11.528;2024-02-26T12:10:16;95523.97;;;9.21;63.80
83185;BME280;73080;48.768;11.528;2024-02-26T12:12:41;95528.34;;;9.46;62.83
83185;BME280;73080;48.768;11.528;2024-02-26T12:15:08;95533.75;;;9.60;62.54
83185;BME280;73080;48.768;11.528;2024-02-26T12:17:34;95525.72;;;9.46;63.36
83185;BME280;73080;48.768;11.528;2024-02-26T12:20:13;95516.31;;;9.35;62.79
83185;BME280;73080;48.768;11.528;2024-02-26T12:22:44;95519.72;;;9.41;62.53
83185;BME280;73080;48.768;11.528;2024-02-26T12:25:10;95516.38;;;9.74;62.16
83185;BME280;73080;48.768;11.528;2024-02-26T12:27:35;95514.66;;;9.54;64.86
83185;BME280;73080;48.768;11.528;2024-02-26T12:30:02;95513.50;;;9.71;62.40
83185;BME280;73080;48.768;11.528;2024-02-26T12:32:27;95510.81;;;9.81;61.92
83185;BME280;73080;48.768;11.528;2024-02-26T12:34:53;95518.78;;;9.66;62.00
83185;BME280;73080;48.768;11.528;2024-02-26T12:37:18;95513.38;;;9.52;62.87
83185;BME280;73080;48.768;11.528;2024-02-26T12:39:44;95516.38;;;9.25;64.58
83185;BME280;73080;48.768;11.528;2024-02-26T12:42:09;95520.34;;;9.17;65.14
83185;BME280;73080;48.768;11.528;2024-02-26T12:44:35;95529.41;;;9.40;65.29
83185;BME280;73080;48.768;11.528;2024-02-26T12:47:01;95528.47;;;9.16;62.90
83185;BME280;73080;48.768;11.528;2024-02-26T12:49:26;95525.25;;;9.34;65.18
83185;BME280;73080;48.768;11.528;2024-02-26T12:51:52;95522.06;;;9.37;64.23
83185;BME280;73080;48.768;11.528;2024-02-26T12:54:17;95522.97;;;9.12;63.30
83185;BME280;73080;48.768;11.528;2024-02-26T12:56:42;95523.75;;;9.18;64.47
83185;BME280;73080;48.768;11.528;2024-02-26T12:59:08;95533.19;;;9.14;64.45
83185;BME280;73080;48.768;11.528;2024-02-26T13:01:34;95531.53;;;9.38;64.10
83185;BME280;73080;48.768;11.528;2024-02-26T13:03:59;95535.72;;;9.29;63.22